KLGU

Logan-Cache Airport

Logan, Utah, USA
METAR KLGU 230451Z AUTO 00000KT 10SM OVC100 11/09 A3005 RMK AO2 RAE01 SLP153 P0000 T01060089
Observed Flight Rules
Oct-23 @ 04:51 UTC (28 minutes ago) Visual Flight Rules
Visibility Clouds
10 miles
  • Overcast at 10,000' AGL
Temperatures Readings Precipitation
Current 11°C / 52°F
Dewpoint 9°C / 48°F
Humidity 88%
Altimeter 30.05" Hg
Pressure 1015.3 hPa
Elevation 1355
Current Rain 0.005
METAR KLGU 230451Z AUTO 00000KT 10SM OVC100 11/09 A3005 RMK AO2 RAE01 SLP153 P0000 T01060089
Observed Flight Rules
Oct-23 @ 04:51 UTC
(28 minutes ago)
VFR
Clouds
  • Overcast at 10,000' AGL
Temperature Dewpoint
11°C / 52°F 9°C / 48°F
Humidity Altimeter Pressure
88% 30.05" Hg 1015.3 hPa
Current Rain
0.005